sensor_id;sensor_type;location;lat;lon;timestamp;P1;durP1;ratioP1;P2;durP2;ratioP2
1414;SDS011;702;49.466;11.086;2022-09-01T00:01:52;6.30;;;5.90;;
1414;SDS011;702;49.466;11.086;2022-09-01T00:04:21;6.30;;;5.80;;
1414;SDS011;702;49.466;11.086;2022-09-01T00:06:51;6.60;;;6.10;;
1414;SDS011;702;49.466;11.086;2022-09-01T00:09:20;5.97;;;5.53;;
1414;SDS011;702;49.466;11.086;2022-09-01T00:11:51;7.00;;;6.50;;
1414;SDS011;702;49.466;11.086;2022-09-01T00:14:21;7.57;;;6.23;;
1414;SDS011;702;49.466;11.086;2022-09-01T00:16:52;7.27;;;6.67;;
1414;SDS011;702;49.466;11.086;2022-09-01T00:19:19;7.23;;;6.53;;
1414;SDS011;702;49.466;11.086;2022-09-01T00:21:47;7.30;;;6.70;;
1414;SDS011;702;49.466;11.086;2022-09-01T00:24:15;8.93;;;6.67;;
1414;SDS011;702;49.466;11.086;2022-09-01T00:26:44;8.20;;;7.60;;
1414;SDS011;702;49.466;11.086;2022-09-01T00:29:13;6.80;;;6.23;;
1414;SDS011;702;49.466;11.086;2022-09-01T00:31:41;6.90;;;6.40;;
1414;SDS011;702;49.466;11.086;2022-09-01T00:34:08;6.60;;;6.13;;
1414;SDS011;702;49.466;11.086;2022-09-01T00:36:36;6.77;;;6.27;;
1414;SDS011;702;49.466;11.086;2022-09-01T00:39:04;6.90;;;6.33;;
1414;SDS011;702;49.466;11.086;2022-09-01T00:41:33;7.93;;;6.27;;
1414;SDS011;702;49.466;11.086;2022-09-01T00:44:04;7.90;;;7.20;;
1414;SDS011;702;49.466;11.086;2022-09-01T00:46:38;6.50;;;6.00;;
1414;SDS011;702;49.466;11.086;2022-09-01T00:49:11;6.63;;;6.10;;
1414;SDS011;702;49.466;11.086;2022-09-01T00:51:43;5.90;;;5.50;;
1414;SDS011;702;49.466;11.086;2022-09-01T00:54:14;7.50;;;6.90;;
1414;SDS011;702;49.466;11.086;2022-09-01T00:56:48;5.90;;;5.50;;
1414;SDS011;702;49.466;11.086;2022-09-01T00:59:16;7.33;;;6.73;;
1414;SDS011;702;49.466;11.086;2022-09-01T01:01:48;7.50;;;6.87;;
1414;SDS011;702;49.466;11.086;2022-09-01T01:04:15;7.87;;;7.17;;
1414;SDS011;702;49.466;11.086;2022-09-01T01:06:43;7.60;;;7.10;;
1414;SDS011;702;49.466;11.086;2022-09-01T01:09:23;7.47;;;6.87;;
1414;SDS011;702;49.466;11.086;2022-09-01T01:11:52;7.10;;;6.53;;
1414;SDS011;702;49.466;11.086;2022-09-01T01:14:22;7.40;;;6.77;;
1414;SDS011;702;49.466;11.086;2022-09-01T01:16:53;7.20;;;6.60;;
1414;SDS011;702;49.466;11.086;2022-09-01T01:19:22;8.17;;;7.57;;
1414;SDS011;702;49.466;11.086;2022-09-01T01:22:25;7.13;;;6.50;;
1414;SDS011;702;49.466;11.086;2022-09-01T01:25:19;7.33;;;6.73;;
1414;SDS011;702;49.466;11.086;2022-09-01T01:27:48;7.23;;;6.73;;
1414;SDS011;702;49.466;11.086;2022-09-01T01:30:16;7.33;;;6.73;;
1414;SDS011;702;49.466;11.086;2022-09-01T01:32:45;7.97;;;7.33;;
1414;SDS011;702;49.466;11.086;2022-09-01T01:35:14;7.80;;;7.20;;
1414;SDS011;702;49.466;11.086;2022-09-01T01:37:45;7.90;;;7.20;;
1414;SDS011;702;49.466;11.086;2022-09-01T01:40:14;7.90;;;7.30;;
1414;SDS011;702;49.466;11.086;2022-09-01T01:42:48;7.67;;;7.03;;
1414;SDS011;702;49.466;11.086;2022-09-01T01:45:21;7.73;;;7.00;;
1414;SDS011;702;49.466;11.086;2022-09-01T01:47:51;7.60;;;7.00;;
1414;SDS011;702;49.466;11.086;2022-09-01T01:50:20;8.87;;;7.47;;
1414;SDS011;702;49.466;11.086;2022-09-01T01:52:50;7.13;;;6.57;;
1414;SDS011;702;49.466;11.086;2022-09-01T01:55:19;7.83;;;7.13;;
1414;SDS011;702;49.466;11.086;2022-09-01T01:57:53;8.17;;;7.47;;
1414;SDS011;702;49.466;11.086;2022-09-01T02:00:21;7.80;;;7.10;;
1414;SDS011;702;49.466;11.086;2022-09-01T02:02:51;7.90;;;7.10;;
1414;SDS011;702;49.466;11.086;2022-09-01T02:05:20;7.40;;;6.80;;
1414;SDS011;702;49.466;11.086;2022-09-01T02:07:50;8.53;;;7.77;;
1414;SDS011;702;49.466;11.086;2022-09-01T02:10:24;8.10;;;7.27;;
1414;SDS011;702;49.466;11.086;2022-09-01T02:12:57;7.77;;;7.13;;
1414;SDS011;702;49.466;11.086;2022-09-01T02:15:28;9.07;;;8.40;;
1414;SDS011;702;49.466;11.086;2022-09-01T02:17:56;8.00;;;7.30;;
1414;SDS011;702;49.466;11.086;2022-09-01T02:20:25;8.60;;;8.00;;
1414;SDS011;702;49.466;11.086;2022-09-01T02:22:53;8.47;;;7.77;;
1414;SDS011;702;49.466;11.086;2022-09-01T02:25:21;8.93;;;8.10;;
1414;SDS011;702;49.466;11.086;2022-09-01T02:27:48;8.47;;;7.77;;
1414;SDS011;702;49.466;11.086;2022-09-01T02:30:21;9.40;;;8.50;;
1414;SDS011;702;49.466;11.086;2022-09-01T02:32:51;9.57;;;8.60;;
1414;SDS011;702;49.466;11.086;2022-09-01T02:35:19;8.77;;;8.07;;
1414;SDS011;702;49.466;11.086;2022-09-01T02:37:48;8.30;;;7.60;;
1414;SDS011;702;49.466;11.086;2022-09-01T02:40:19;9.00;;;8.10;;
1414;SDS011;702;49.466;11.086;2022-09-01T02:42:47;8.63;;;7.83;;
1414;SDS011;702;49.466;11.086;2022-09-01T02:45:17;9.50;;;8.80;;
1414;SDS011;702;49.466;11.086;2022-09-01T02:47:45;9.10;;;8.40;;
1414;SDS011;702;49.466;11.086;2022-09-01T02:50:14;12.17;;;8.40;;
1414;SDS011;702;49.466;11.086;2022-09-01T02:52:43;9.63;;;8.83;;
1414;SDS011;702;49.466;11.086;2022-09-01T02:55:13;9.80;;;9.00;;
1414;SDS011;702;49.466;11.086;2022-09-01T02:57:46;9.50;;;8.80;;
1414;SDS011;702;49.466;11.086;2022-09-01T03:00:16;9.40;;;8.67;;
1414;SDS011;702;49.466;11.086;2022-09-01T03:02:55;9.23;;;8.47;;
1414;SDS011;702;49.466;11.086;2022-09-01T03:05:25;9.77;;;8.97;;
1414;SDS011;702;49.466;11.086;2022-09-01T03:07:56;9.80;;;9.00;;
1414;SDS011;702;49.466;11.086;2022-09-01T03:10:27;10.90;;;10.00;;
1414;SDS011;702;49.466;11.086;2022-09-01T03:12:58;9.80;;;9.10;;
1414;SDS011;702;49.466;11.086;2022-09-01T03:15:26;10.33;;;9.30;;
1414;SDS011;702;49.466;11.086;2022-09-01T03:17:55;11.03;;;10.13;;
1414;SDS011;702;49.466;11.086;2022-09-01T03:20:26;10.50;;;9.60;;
1414;SDS011;702;49.466;11.086;2022-09-01T03:22:56;11.23;;;10.33;;
1414;SDS011;702;49.466;11.086;2022-09-01T03:25:23;10.60;;;9.70;;
1414;SDS011;702;49.466;11.086;2022-09-01T03:27:52;12.20;;;11.10;;
1414;SDS011;702;49.466;11.086;2022-09-01T03:30:19;11.80;;;10.83;;
1414;SDS011;702;49.466;11.086;2022-09-01T03:32:46;14.50;;;11.00;;
1414;SDS011;702;49.466;11.086;2022-09-01T03:35:15;11.77;;;10.70;;
1414;SDS011;702;49.466;11.086;2022-09-01T03:37:42;12.00;;;10.97;;
1414;SDS011;702;49.466;11.086;2022-09-01T03:40:11;11.83;;;10.73;;
1414;SDS011;702;49.466;11.086;2022-09-01T03:42:40;11.50;;;10.60;;
1414;SDS011;702;49.466;11.086;2022-09-01T03:45:08;11.40;;;10.50;;
1414;SDS011;702;49.466;11.086;2022-09-01T03:47:40;11.87;;;10.97;;
1414;SDS011;702;49.466;11.086;2022-09-01T03:50:09;12.13;;;11.03;;
1414;SDS011;702;49.466;11.086;2022-09-01T03:52:47;11.30;;;10.40;;
1414;SDS011;702;49.466;11.086;2022-09-01T03:55:17;10.93;;;10.00;;
1414;SDS011;702;49.466;11.086;2022-09-01T03:57:48;11.17;;;10.27;;
1414;SDS011;702;49.466;11.086;2022-09-01T04:00:15;11.07;;;10.17;;
1414;SDS011;702;49.466;11.086;2022-09-01T04:02:47;12.00;;;10.77;;
1414;SDS011;702;49.466;11.086;2022-09-01T04:05:16;10.97;;;9.97;;
1414;SDS011;702;49.466;11.086;2022-09-01T04:07:47;10.40;;;9.50;;
1414;SDS011;702;49.466;11.086;2022-09-01T04:10:15;10.50;;;9.70;;
1414;SDS011;702;49.466;11.086;2022-09-01T04:12:43;10.43;;;9.50;;
1414;SDS011;702;49.466;11.086;2022-09-01T04:15:12;10.93;;;10.00;;
1414;SDS011;702;49.466;11.086;2022-09-01T04:17:41;10.40;;;9.60;;
1414;SDS011;702;49.466;11.086;2022-09-01T04:20:28;10.60;;;9.70;;
1414;SDS011;702;49.466;11.086;2022-09-01T04:23:04;10.33;;;9.43;;
1414;SDS011;702;49.466;11.086;2022-09-01T04:25:35;10.50;;;9.50;;
1414;SDS011;702;49.466;11.086;2022-09-01T04:28:03;10.47;;;9.47;;
1414;SDS011;702;49.466;11.086;2022-09-01T04:30:37;12.17;;;10.97;;
1414;SDS011;702;49.466;11.086;2022-09-01T04:33:05;11.70;;;10.60;;
1414;SDS011;702;49.466;11.086;2022-09-01T04:35:37;8.60;;;7.90;;
1414;SDS011;702;49.466;11.086;2022-09-01T04:38:05;11.23;;;9.97;;
1414;SDS011;702;49.466;11.086;2022-09-01T04:40:36;11.00;;;9.93;;
1414;SDS011;702;49.466;11.086;2022-09-01T04:43:04;10.90;;;10.00;;
1414;SDS011;702;49.466;11.086;2022-09-01T04:45:33;9.43;;;8.53;;
1414;SDS011;702;49.466;11.086;2022-09-01T04:48:01;9.90;;;8.87;;
1414;SDS011;702;49.466;11.086;2022-09-01T04:50:30;9.70;;;8.87;;
1414;SDS011;702;49.466;11.086;2022-09-01T04:53:00;8.30;;;7.60;;
1414;SDS011;702;49.466;11.086;2022-09-01T04:55:30;9.30;;;8.60;;
1414;SDS011;702;49.466;11.086;2022-09-01T04:57:58;8.90;;;8.20;;
1414;SDS011;702;49.466;11.086;2022-09-01T05:00:28;8.70;;;8.00;;
1414;SDS011;702;49.466;11.086;2022-09-01T05:02:58;7.47;;;6.97;;
1414;SDS011;702;49.466;11.086;2022-09-01T05:05:29;7.63;;;7.03;;
1414;SDS011;702;49.466;11.086;2022-09-01T05:08:08;8.23;;;7.53;;
1414;SDS011;702;49.466;11.086;2022-09-01T05:10:39;8.33;;;7.63;;
1414;SDS011;702;49.466;11.086;2022-09-01T05:13:09;23.93;;;10.53;;
1414;SDS011;702;49.466;11.086;2022-09-01T05:15:38;8.33;;;7.53;;
1414;SDS011;702;49.466;11.086;2022-09-01T05:18:11;8.87;;;8.17;;
1414;SDS011;702;49.466;11.086;2022-09-01T05:20:40;6.80;;;6.30;;
1414;SDS011;702;49.466;11.086;2022-09-01T05:23:10;6.93;;;6.43;;
1414;SDS011;702;49.466;11.086;2022-09-01T05:25:39;7.70;;;7.00;;
1414;SDS011;702;49.466;11.086;2022-09-01T05:28:08;7.33;;;6.70;;
1414;SDS011;702;49.466;11.086;2022-09-01T05:30:38;6.60;;;6.00;;
1414;SDS011;702;49.466;11.086;2022-09-01T05:33:07;7.07;;;6.33;;
1414;SDS011;702;49.466;11.086;2022-09-01T05:35:36;6.30;;;5.80;;
1414;SDS011;702;49.466;11.086;2022-09-01T05:38:11;8.10;;;7.30;;
1414;SDS011;702;49.466;11.086;2022-09-01T05:40:39;8.07;;;7.10;;
1414;SDS011;702;49.466;11.086;2022-09-01T05:43:09;7.83;;;7.23;;
1414;SDS011;702;49.466;11.086;2022-09-01T05:45:38;7.00;;;6.40;;
1414;SDS011;702;49.466;11.086;2022-09-01T05:48:10;8.00;;;6.70;;
1414;SDS011;702;49.466;11.086;2022-09-01T05:50:46;7.00;;;6.50;;
1414;SDS011;702;49.466;11.086;2022-09-01T05:53:15;7.33;;;6.73;;
1414;SDS011;702;49.466;11.086;2022-09-01T05:55:42;6.73;;;6.13;;
1414;SDS011;702;49.466;11.086;2022-09-01T05:58:11;6.57;;;6.07;;
1414;SDS011;702;49.466;11.086;2022-09-01T06:00:40;6.40;;;5.80;;
1414;SDS011;702;49.466;11.086;2022-09-01T06:03:12;6.80;;;6.30;;
1414;SDS011;702;49.466;11.086;2022-09-01T06:05:39;7.73;;;6.00;;
1414;SDS011;702;49.466;11.086;2022-09-01T06:08:09;6.10;;;5.60;;
1414;SDS011;702;49.466;11.086;2022-09-01T06:10:40;5.90;;;5.30;;
1414;SDS011;702;49.466;11.086;2022-09-01T06:13:07;6.83;;;5.40;;
1414;SDS011;702;49.466;11.086;2022-09-01T06:15:36;5.77;;;5.37;;
1414;SDS011;702;49.466;11.086;2022-09-01T06:18:04;6.37;;;5.90;;
1414;SDS011;702;49.466;11.086;2022-09-01T06:20:33;6.30;;;5.50;;
1414;SDS011;702;49.466;11.086;2022-09-01T06:23:05;6.60;;;6.10;;
1414;SDS011;702;49.466;11.086;2022-09-01T06:25:35;6.17;;;5.67;;
1414;SDS011;702;49.466;11.086;2022-09-01T06:28:05;6.27;;;5.77;;
1414;SDS011;702;49.466;11.086;2022-09-01T06:30:33;5.73;;;5.33;;
1414;SDS011;702;49.466;11.086;2022-09-01T06:33:00;7.73;;;4.80;;
1414;SDS011;702;49.466;11.086;2022-09-01T06:35:34;5.53;;;5.03;;
1414;SDS011;702;49.466;11.086;2022-09-01T06:38:01;5.60;;;5.10;;
1414;SDS011;702;49.466;11.086;2022-09-01T06:40:29;5.57;;;5.17;;
1414;SDS011;702;49.466;11.086;2022-09-01T06:42:56;6.40;;;5.80;;
1414;SDS011;702;49.466;11.086;2022-09-01T06:45:27;6.00;;;5.50;;
1414;SDS011;702;49.466;11.086;2022-09-01T06:47:54;6.07;;;5.40;;
1414;SDS011;702;49.466;11.086;2022-09-01T06:50:22;6.63;;;5.17;;
1414;SDS011;702;49.466;11.086;2022-09-01T06:52:49;5.40;;;4.90;;
1414;SDS011;702;49.466;11.086;2022-09-01T06:55:28;5.53;;;5.10;;
1414;SDS011;702;49.466;11.086;2022-09-01T06:57:58;5.90;;;5.27;;
1414;SDS011;702;49.466;11.086;2022-09-01T07:00:29;5.43;;;4.93;;
1414;SDS011;702;49.466;11.086;2022-09-01T07:02:57;5.53;;;5.03;;
1414;SDS011;702;49.466;11.086;2022-09-01T07:05:24;4.90;;;4.60;;
1414;SDS011;702;49.466;11.086;2022-09-01T07:07:52;5.70;;;5.20;;
1414;SDS011;702;49.466;11.086;2022-09-01T07:10:21;5.87;;;5.27;;
1414;SDS011;702;49.466;11.086;2022-09-01T07:12:49;5.33;;;4.93;;
1414;SDS011;702;49.466;11.086;2022-09-01T07:15:20;5.87;;;5.27;;
1414;SDS011;702;49.466;11.086;2022-09-01T07:17:49;5.33;;;4.90;;
1414;SDS011;702;49.466;11.086;2022-09-01T07:20:21;5.30;;;4.80;;
1414;SDS011;702;49.466;11.086;2022-09-01T07:22:51;5.27;;;4.73;;
1414;SDS011;702;49.466;11.086;2022-09-01T07:25:20;5.40;;;4.60;;
1414;SDS011;702;49.466;11.086;2022-09-01T07:27:47;4.57;;;4.17;;
1414;SDS011;702;49.466;11.086;2022-09-01T07:30:16;5.03;;;4.53;;
1414;SDS011;702;49.466;11.086;2022-09-01T07:32:44;5.23;;;4.83;;
1414;SDS011;702;49.466;11.086;2022-09-01T07:35:18;5.60;;;5.10;;
1414;SDS011;702;49.466;11.086;2022-09-01T07:37:47;5.50;;;4.93;;
1414;SDS011;702;49.466;11.086;2022-09-01T07:40:16;5.70;;;4.40;;
1414;SDS011;702;49.466;11.086;2022-09-01T07:42:47;5.30;;;4.80;;
1414;SDS011;702;49.466;11.086;2022-09-01T07:45:21;5.83;;;5.33;;
1414;SDS011;702;49.466;11.086;2022-09-01T07:47:50;6.20;;;5.70;;
1414;SDS011;702;49.466;11.086;2022-09-01T07:50:19;6.23;;;5.20;;
1414;SDS011;702;49.466;11.086;2022-09-01T07:52:52;4.90;;;4.50;;
1414;SDS011;702;49.466;11.086;2022-09-01T07:55:20;6.33;;;5.77;;
1414;SDS011;702;49.466;11.086;2022-09-01T07:57:47;5.20;;;4.70;;
1414;SDS011;702;49.466;11.086;2022-09-01T08:00:15;5.40;;;5.00;;
1414;SDS011;702;49.466;11.086;2022-09-01T08:02:46;5.30;;;4.90;;
1414;SDS011;702;49.466;11.086;2022-09-01T08:05:15;5.30;;;4.90;;
1414;SDS011;702;49.466;11.086;2022-09-01T08:07:48;5.27;;;4.77;;
1414;SDS011;702;49.466;11.086;2022-09-01T08:10:15;7.30;;;5.17;;
1414;SDS011;702;49.466;11.086;2022-09-01T08:12:43;6.57;;;5.67;;
1414;SDS011;702;49.466;11.086;2022-09-01T08:15:10;5.80;;;5.30;;
1414;SDS011;702;49.466;11.086;2022-09-01T08:17:38;5.20;;;4.83;;
1414;SDS011;702;49.466;11.086;2022-09-01T08:20:06;4.80;;;4.40;;
1414;SDS011;702;49.466;11.086;2022-09-01T08:22:35;5.93;;;4.90;;
1414;SDS011;702;49.466;11.086;2022-09-01T08:25:05;5.37;;;4.97;;
1414;SDS011;702;49.466;11.086;2022-09-01T08:27:35;5.83;;;5.23;;
1414;SDS011;702;49.466;11.086;2022-09-01T08:30:05;4.70;;;4.30;;
1414;SDS011;702;49.466;11.086;2022-09-01T08:32:35;5.50;;;5.00;;
1414;SDS011;702;49.466;11.086;2022-09-01T08:35:07;4.77;;;4.47;;
1414;SDS011;702;49.466;11.086;2022-09-01T08:37:35;5.17;;;4.87;;
1414;SDS011;702;49.466;11.086;2022-09-01T08:40:05;10.70;;;4.83;;
1414;SDS011;702;49.466;11.086;2022-09-01T08:42:39;4.53;;;4.13;;
1414;SDS011;702;49.466;11.086;2022-09-01T08:45:20;5.83;;;5.33;;
1414;SDS011;702;49.466;11.086;2022-09-01T08:47:52;6.10;;;5.00;;
1414;SDS011;702;49.466;11.086;2022-09-01T08:50:21;4.30;;;4.00;;
1414;SDS011;702;49.466;11.086;2022-09-01T08:52:50;4.30;;;4.00;;
1414;SDS011;702;49.466;11.086;2022-09-01T08:55:27;4.97;;;3.90;;
1414;SDS011;702;49.466;11.086;2022-09-01T08:58:03;5.10;;;4.70;;
1414;SDS011;702;49.466;11.086;2022-09-01T09:00:32;4.50;;;4.20;;
1414;SDS011;702;49.466;11.086;2022-09-01T09:03:12;4.63;;;4.33;;
1414;SDS011;702;49.466;11.086;2022-09-01T09:05:55;4.77;;;4.37;;
1414;SDS011;702;49.466;11.086;2022-09-01T09:11:40;4.23;;;3.93;;
1414;SDS011;702;49.466;11.086;2022-09-01T09:14:22;4.40;;;4.10;;
1414;SDS011;702;49.466;11.086;2022-09-01T09:17:03;4.93;;;4.53;;
1414;SDS011;702;49.466;11.086;2022-09-01T09:19:32;4.83;;;4.30;;
1414;SDS011;702;49.466;11.086;2022-09-01T09:22:03;4.70;;;4.30;;
1414;SDS011;702;49.466;11.086;2022-09-01T09:24:36;4.70;;;4.30;;
1414;SDS011;702;49.466;11.086;2022-09-01T09:27:22;4.73;;;4.23;;
1414;SDS011;702;49.466;11.086;2022-09-01T09:29:53;4.13;;;3.83;;
1414;SDS011;702;49.466;11.086;2022-09-01T09:32:23;4.40;;;4.00;;
1414;SDS011;702;49.466;11.086;2022-09-01T09:35:16;4.60;;;4.27;;
1414;SDS011;702;49.466;11.086;2022-09-01T09:37:47;4.87;;;3.80;;
1414;SDS011;702;49.466;11.086;2022-09-01T09:40:16;4.10;;;3.80;;
1414;SDS011;702;49.466;11.086;2022-09-01T09:43:01;5.60;;;4.00;;
1414;SDS011;702;49.466;11.086;2022-09-01T09:45:32;3.60;;;3.40;;
1414;SDS011;702;49.466;11.086;2022-09-01T09:48:04;4.10;;;3.70;;
1414;SDS011;702;49.466;11.086;2022-09-01T09:50:36;4.53;;;4.13;;
1414;SDS011;702;49.466;11.086;2022-09-01T09:53:12;4.60;;;3.60;;
1414;SDS011;702;49.466;11.086;2022-09-01T09:55:52;4.70;;;4.17;;
1414;SDS011;702;49.466;11.086;2022-09-01T09:58:26;4.27;;;3.93;;
1414;SDS011;702;49.466;11.086;2022-09-01T10:01:03;4.33;;;3.67;;
1414;SDS011;702;49.466;11.086;2022-09-01T10:03:36;4.60;;;3.67;;
1414;SDS011;702;49.466;11.086;2022-09-01T10:06:15;3.83;;;3.53;;
1414;SDS011;702;49.466;11.086;2022-09-01T10:08:58;3.47;;;3.17;;
1414;SDS011;702;49.466;11.086;2022-09-01T10:11:29;3.57;;;3.27;;
1414;SDS011;702;49.466;11.086;2022-09-01T10:14:05;3.40;;;3.20;;
1414;SDS011;702;49.466;11.086;2022-09-01T10:16:36;3.60;;;3.30;;
1414;SDS011;702;49.466;11.086;2022-09-01T10:19:07;3.83;;;3.53;;
1414;SDS011;702;49.466;11.086;2022-09-01T10:21:39;3.83;;;3.53;;
1414;SDS011;702;49.466;11.086;2022-09-01T10:24:15;3.87;;;3.40;;
1414;SDS011;702;49.466;11.086;2022-09-01T10:26:46;3.57;;;3.27;;
1414;SDS011;702;49.466;11.086;2022-09-01T10:29:20;3.30;;;3.10;;
1414;SDS011;702;49.466;11.086;2022-09-01T10:31:52;3.33;;;3.03;;
1414;SDS011;702;49.466;11.086;2022-09-01T10:34:21;3.70;;;3.40;;
1414;SDS011;702;49.466;11.086;2022-09-01T10:36:49;2.97;;;2.77;;
1414;SDS011;702;49.466;11.086;2022-09-01T10:39:18;3.00;;;2.80;;
1414;SDS011;702;49.466;11.086;2022-09-01T10:41:49;3.00;;;2.80;;
1414;SDS011;702;49.466;11.086;2022-09-01T10:44:24;3.00;;;2.67;;
1414;SDS011;702;49.466;11.086;2022-09-01T10:46:56;3.87;;;3.10;;
1414;SDS011;702;49.466;11.086;2022-09-01T10:55:22;3.30;;;3.10;;
1414;SDS011;702;49.466;11.086;2022-09-01T10:57:55;2.83;;;2.50;;
1414;SDS011;702;49.466;11.086;2022-09-01T11:00:45;3.30;;;3.10;;
1414;SDS011;702;49.466;11.086;2022-09-01T11:09:27;3.90;;;3.20;;
1414;SDS011;702;49.466;11.086;2022-09-01T11:12:12;6.43;;;3.60;;
1414;SDS011;702;49.466;11.086;2022-09-01T11:15:06;3.30;;;3.10;;
1414;SDS011;702;49.466;11.086;2022-09-01T11:18:07;3.70;;;3.50;;
1414;SDS011;702;49.466;11.086;2022-09-01T11:20:38;2.90;;;2.70;;
1414;SDS011;702;49.466;11.086;2022-09-01T11:23:09;4.80;;;3.30;;
1414;SDS011;702;49.466;11.086;2022-09-01T11:25:46;3.40;;;3.10;;
1414;SDS011;702;49.466;11.086;2022-09-01T11:31:17;3.20;;;3.00;;
1414;SDS011;702;49.466;11.086;2022-09-01T11:33:54;4.33;;;2.90;;
1414;SDS011;702;49.466;11.086;2022-09-01T11:36:44;3.97;;;3.40;;
1414;SDS011;702;49.466;11.086;2022-09-01T11:39:30;4.40;;;2.90;;
1414;SDS011;702;49.466;11.086;2022-09-01T11:42:02;4.00;;;3.70;;
1414;SDS011;702;49.466;11.086;2022-09-01T11:44:36;3.37;;;3.17;;
1414;SDS011;702;49.466;11.086;2022-09-01T11:47:12;5.80;;;3.57;;
1414;SDS011;702;49.466;11.086;2022-09-01T11:49:47;4.27;;;3.90;;
1414;SDS011;702;49.466;11.086;2022-09-01T11:52:20;3.80;;;3.50;;
1414;SDS011;702;49.466;11.086;2022-09-01T11:54:51;4.00;;;3.60;;
1414;SDS011;702;49.466;11.086;2022-09-01T11:57:23;4.13;;;3.70;;
1414;SDS011;702;49.466;11.086;2022-09-01T11:59:56;3.43;;;3.13;;
1414;SDS011;702;49.466;11.086;2022-09-01T12:02:26;3.43;;;3.17;;
1414;SDS011;702;49.466;11.086;2022-09-01T12:04:59;4.10;;;3.80;;
1414;SDS011;702;49.466;11.086;2022-09-01T12:07:31;3.97;;;3.67;;
1414;SDS011;702;49.466;11.086;2022-09-01T12:10:16;5.60;;;3.70;;
1414;SDS011;702;49.466;11.086;2022-09-01T12:12:46;3.30;;;3.10;;
1414;SDS011;702;49.466;11.086;2022-09-01T12:15:18;3.30;;;3.10;;
1414;SDS011;702;49.466;11.086;2022-09-01T12:17:49;3.80;;;3.50;;
1414;SDS011;702;49.466;11.086;2022-09-01T12:20:23;3.97;;;3.67;;
1414;SDS011;702;49.466;11.086;2022-09-01T12:22:55;4.20;;;3.90;;
1414;SDS011;702;49.466;11.086;2022-09-01T12:25:24;3.90;;;3.70;;
1414;SDS011;702;49.466;11.086;2022-09-01T12:27:54;4.70;;;4.30;;
1414;SDS011;702;49.466;11.086;2022-09-01T12:30:22;3.37;;;3.17;;
1414;SDS011;702;49.466;11.086;2022-09-01T12:32:51;4.30;;;3.90;;
1414;SDS011;702;49.466;11.086;2022-09-01T12:35:20;4.30;;;3.93;;
1414;SDS011;702;49.466;11.086;2022-09-01T12:37:51;4.00;;;3.70;;
1414;SDS011;702;49.466;11.086;2022-09-01T12:40:52;4.40;;;3.23;;
1414;SDS011;702;49.466;11.086;2022-09-01T12:43:26;4.37;;;4.07;;
1414;SDS011;702;49.466;11.086;2022-09-01T12:46:03;4.20;;;3.90;;
1414;SDS011;702;49.466;11.086;2022-09-01T12:48:33;4.00;;;3.60;;
1414;SDS011;702;49.466;11.086;2022-09-01T12:51:04;3.67;;;3.43;;
1414;SDS011;702;49.466;11.086;2022-09-01T12:53:49;4.53;;;4.13;;
1414;SDS011;702;49.466;11.086;2022-09-01T12:56:20;4.40;;;4.10;;
1414;SDS011;702;49.466;11.086;2022-09-01T12:59:03;3.83;;;3.53;;
1414;SDS011;702;49.466;11.086;2022-09-01T13:01:36;3.10;;;2.90;;
1414;SDS011;702;49.466;11.086;2022-09-01T13:04:09;3.90;;;3.70;;
1414;SDS011;702;49.466;11.086;2022-09-01T13:06:54;3.43;;;3.23;;
1414;SDS011;702;49.466;11.086;2022-09-01T13:09:27;3.20;;;3.00;;
1414;SDS011;702;49.466;11.086;2022-09-01T13:12:07;3.20;;;2.90;;
1414;SDS011;702;49.466;11.086;2022-09-01T13:14:37;3.53;;;3.07;;
1414;SDS011;702;49.466;11.086;2022-09-01T13:17:04;3.63;;;2.90;;
1414;SDS011;702;49.466;11.086;2022-09-01T13:19:32;3.30;;;3.00;;
1414;SDS011;702;49.466;11.086;2022-09-01T13:22:00;2.80;;;2.60;;
1414;SDS011;702;49.466;11.086;2022-09-01T13:24:27;5.23;;;2.97;;
1414;SDS011;702;49.466;11.086;2022-09-01T13:26:55;3.90;;;2.83;;
1414;SDS011;702;49.466;11.086;2022-09-01T13:29:22;4.00;;;2.57;;
1414;SDS011;702;49.466;11.086;2022-09-01T13:31:50;3.20;;;2.80;;
1414;SDS011;702;49.466;11.086;2022-09-01T13:34:18;3.57;;;2.63;;
1414;SDS011;702;49.466;11.086;2022-09-01T13:36:45;6.03;;;2.63;;
1414;SDS011;702;49.466;11.086;2022-09-01T13:39:14;3.27;;;3.07;;
1414;SDS011;702;49.466;11.086;2022-09-01T13:41:41;3.00;;;2.80;;
1414;SDS011;702;49.466;11.086;2022-09-01T13:44:08;2.83;;;2.63;;
1414;SDS011;702;49.466;11.086;2022-09-01T13:46:36;3.43;;;3.20;;
1414;SDS011;702;49.466;11.086;2022-09-01T13:49:03;3.47;;;3.27;;
1414;SDS011;702;49.466;11.086;2022-09-01T13:51:30;3.10;;;2.90;;
1414;SDS011;702;49.466;11.086;2022-09-01T13:53:58;3.50;;;3.20;;
1414;SDS011;702;49.466;11.086;2022-09-01T13:56:26;4.23;;;3.30;;
1414;SDS011;702;49.466;11.086;2022-09-01T13:58:53;2.90;;;2.70;;
1414;SDS011;702;49.466;11.086;2022-09-01T14:01:21;3.80;;;3.20;;
1414;SDS011;702;49.466;11.086;2022-09-01T14:03:49;2.93;;;2.60;;
1414;SDS011;702;49.466;11.086;2022-09-01T14:06:16;3.70;;;3.33;;
1414;SDS011;702;49.466;11.086;2022-09-01T14:08:44;2.93;;;2.73;;
1414;SDS011;702;49.466;11.086;2022-09-01T14:11:14;3.90;;;3.50;;
1414;SDS011;702;49.466;11.086;2022-09-01T14:13:45;3.40;;;3.20;;
1414;SDS011;702;49.466;11.086;2022-09-01T14:16:13;4.50;;;3.23;;
1414;SDS011;702;49.466;11.086;2022-09-01T14:18:40;3.50;;;3.20;;
1414;SDS011;702;49.466;11.086;2022-09-01T14:21:11;3.43;;;3.23;;
1414;SDS011;702;49.466;11.086;2022-09-01T14:23:43;3.20;;;2.90;;
1414;SDS011;702;49.466;11.086;2022-09-01T14:26:14;3.87;;;3.53;;
1414;SDS011;702;49.466;11.086;2022-09-01T14:28:42;3.33;;;3.03;;
1414;SDS011;702;49.466;11.086;2022-09-01T14:31:13;3.30;;;3.10;;
1414;SDS011;702;49.466;11.086;2022-09-01T14:33:43;3.37;;;3.07;;
1414;SDS011;702;49.466;11.086;2022-09-01T14:36:15;2.73;;;2.50;;
1414;SDS011;702;49.466;11.086;2022-09-01T14:38:45;3.10;;;2.80;;
1414;SDS011;702;49.466;11.086;2022-09-01T14:41:13;3.20;;;3.00;;
1414;SDS011;702;49.466;11.086;2022-09-01T14:43:46;3.57;;;3.27;;
1414;SDS011;702;49.466;11.086;2022-09-01T14:46:14;3.47;;;3.27;;
1414;SDS011;702;49.466;11.086;2022-09-01T14:48:43;3.50;;;3.00;;
1414;SDS011;702;49.466;11.086;2022-09-01T14:51:18;3.13;;;2.93;;
1414;SDS011;702;49.466;11.086;2022-09-01T14:53:48;2.80;;;2.60;;
1414;SDS011;702;49.466;11.086;2022-09-01T14:56:17;3.23;;;3.03;;
1414;SDS011;702;49.466;11.086;2022-09-01T14:58:47;3.57;;;3.27;;
1414;SDS011;702;49.466;11.086;2022-09-01T15:01:17;3.37;;;3.17;;
1414;SDS011;702;49.466;11.086;2022-09-01T15:03:47;5.40;;;2.90;;
1414;SDS011;702;49.466;11.086;2022-09-01T15:06:15;3.53;;;3.27;;
1414;SDS011;702;49.466;11.086;2022-09-01T15:08:45;2.83;;;2.53;;
1414;SDS011;702;49.466;11.086;2022-09-01T15:11:14;3.20;;;2.67;;
1414;SDS011;702;49.466;11.086;2022-09-01T15:13:44;3.20;;;3.00;;
1414;SDS011;702;49.466;11.086;2022-09-01T15:16:18;3.97;;;3.03;;
1414;SDS011;702;49.466;11.086;2022-09-01T15:18:47;3.27;;;2.97;;
1414;SDS011;702;49.466;11.086;2022-09-01T15:21:19;2.97;;;2.67;;
1414;SDS011;702;49.466;11.086;2022-09-01T15:23:47;3.40;;;3.03;;
1414;SDS011;702;49.466;11.086;2022-09-01T15:26:15;3.30;;;3.00;;
1414;SDS011;702;49.466;11.086;2022-09-01T15:28:43;3.80;;;3.47;;
1414;SDS011;702;49.466;11.086;2022-09-01T15:31:14;3.97;;;3.50;;
1414;SDS011;702;49.466;11.086;2022-09-01T15:33:43;4.90;;;3.47;;
1414;SDS011;702;49.466;11.086;2022-09-01T15:36:13;3.90;;;3.60;;
1414;SDS011;702;49.466;11.086;2022-09-01T15:38:42;3.17;;;2.90;;
1414;SDS011;702;49.466;11.086;2022-09-01T15:41:14;3.33;;;3.13;;
1414;SDS011;702;49.466;11.086;2022-09-01T15:43:42;3.20;;;3.00;;
1414;SDS011;702;49.466;11.086;2022-09-01T15:46:11;3.70;;;3.43;;
1414;SDS011;702;49.466;11.086;2022-09-01T15:48:39;3.70;;;3.40;;
1414;SDS011;702;49.466;11.086;2022-09-01T15:51:26;3.23;;;3.03;;
1414;SDS011;702;49.466;11.086;2022-09-01T15:53:59;3.30;;;3.10;;
1414;SDS011;702;49.466;11.086;2022-09-01T15:56:28;3.50;;;3.30;;